Roma, Italy

12:03 PM CET on February 07, 2016 (GMT +0100)
Cecchignola | | Change Station
CLOSE
Current Station
Personal Weather Station
Location: Roma, LAZIO
Elevation: 197 ft
Nearby Weather Stations

Elev 197 ft 41.82 °N, 12.50 °E | Updated 14 minutes ago

Scattered Clouds
Scattered Clouds
55.9 °F
Feels Like 55.9 °F
N
11.0
Wind Variable Wind from ENE
Gusts 22.0 mph

Today
High -- | Low -- °F
--% Chance of Precip.
Yesterday
High -- | Low -- °F
Precip. -- in
Pressure 30.06 in
Visibility 6.2 miles
Clouds Scattered Clouds 2000 ft
Scattered Clouds 3000 ft
Dew Point 47 °F
Humidity 73%
Rainfall 0.00 in
Snow Depth Not available.
7:16 AM 5:32 PM
Waning Crescent, 2% visible
METAR LIRA 071050Z 14018G29KT 9999 SCT020 SCT030 12/07 Q1018
Pressure 30.06 in
Visibility 6.2 miles
Clouds Scattered Clouds 2000 ft
Scattered Clouds 3000 ft
Dew Point 47 °F
Humidity 73%
Rainfall 0.00 in
Snow Depth Not available.
7:16 AM 5:32 PM
Waning Crescent, 2% visible
METAR LIRA 071050Z 14018G29KT 9999 SCT020 SCT030 12/07 Q1018

10-Day Weather Forecast

Almanac

Astronomy

Feb. 07, 2016 Rise Set
Actual Time
Civil Twilight
Nautical Twilight
Astronomical Twilight
Moon
Length of Visible Light
Length of Day
Tomorrow will be .
, % of the Moon is Illuminated

Today's Extremes

Country Highs Country Lows

Community

WunderPhotos

Upload Photos

1,891,170 photos uploaded!

WunderBlog® & News

Nearby

Air Quality

  Air Quality AQ Index Pollutant
Not available.

Snow Depth

Station Depth Elevation

Earthquake Activity

City Distance Mag. Time & Date
Minimum magnitude displayed is 2.5.

Coastal Water Temperatures

Place Temperature

Stations

Nearby Weather Stations

Station Location Temp. Windchill Dew Point Humidity Wind Precip. Elev Updated Type